Airfield :
LOGIN :

Register | Disclaimer

   EN    FR    IT 

 










Legend :    VFR   Marginal VFR   IFR   Intensive IFR   Very Intensive IFR
Visi :
Ceiling :
>= 8 km
>= 3000ft
5 to 8 km
1000 to 3000 ft
1500m to 5 km
500 to 1000 ft
800 to 1500m
200 to 500 ft
< 800m
< 200 ft
Symbols :   Thunderstorms  Fog  Heavy snow  Heavy precipitations  Wind > 20 kt
SIGMETs :     Misc.  Thunderstorms  Icing  Turbulence  Mountain Waves  Volcanic Ashes






- Airport Elevation : 3 ft
- IATA code : LWR


EHLW - Leuuwarden Air Base

CURRENT METAR :
  • 190025Z AUTO 08003KT 9999 NCD 16/15 Q1021 BLU RMK CB INFO NOT AVBL

EXPIRED METARs :
  • 182355Z AUTO VRB02KT 9999 NCD 16/15 Q1022 BLU
  • 182325Z AUTO 07003KT 9000 BR NCD 15/14 Q1022 BLU
  • 182255Z AUTO 06003KT 9000 BR NCD 15/15 Q1022 BLU
  • 182225Z AUTO 06003KT 360V150 9999 NCD 16/15 Q1022 BLU
  • 182155Z AUTO 06003KT 9999 NCD 16/15 Q1022 BLU
  • 182125Z AUTO 07004KT 010V180 9999 NCD 17/15 Q1022 BLU
  • 182055Z AUTO 07005KT 340V140 9999 NCD 17/16 Q1022 BLU
  • 182025Z AUTO 06005KT 350V150 9999 NCD 17/16 Q1022 BLU
  • 181955Z AUTO 06005KT 340V140 9999 NCD 18/16 Q1022 BLU

TAF TAF EHLW
Valid from the 18 at 21:00 until the 19 at 09:00 UTC


182013Z 1821/1909 09007KT CAVOK
PROB40 1823/1905 4000 BR



MET'MAP, your aeronautical weather chart ! - Copyright ORBIFLY December 2007 - Disclaimer

ORBIFLY MET'MAP TEAM :

Programming & Development : Alexandra Zaïnal
Original concept : Baudouin d'Aumeries
Technical & hardware support : Manuel Goepfert
Assistance : Marc-Olivier Méhu




SOURCES & CREDITS :

   NOAA